LWSK/SKP METAR and TAF weather

Enter ICAO airport designator
Station Type Date Time Source
LWSK METAR 2020/01/27 11:00 UTC NOAA

LWSK 271100Z 00000KT 2600 -DZ FEW013 SCT033 OVC070 06/05 Q1017 NOSIG


Station Type Date Time Source
LWSK Decoded METAR 2020/01/27 11:00 UTC NOAA

Skopje-Petrovec, Macedonia, The Republic of (LWSK) 41-58N 021-39E 239M
Jan 27, 2020 - 06:00 AM EST / 2020.01.27 1100 UTC
Wind: Calm:0
Visibility: 1 mile(s):0
Sky conditions: overcast
Weather: light drizzle
Temperature: 42 F (6 C)
Dew Point: 41 F (5 C)
Relative Humidity: 93%
Pressure (altimeter): 30.03 in. Hg (1017 hPa)
ob: LWSK 271100Z 00000KT 2600 -DZ FEW013 SCT033 OVC070 06/05 Q1017 NOSIG
cycle: 11

Station Type Date Time Source
LWSK TAF 2020/01/27 09:39 UTC NOAA

TAF LWSK 270830Z 2709/2809 VRB02KT 1500 BR FEW005 BKN030
TEMPO 2709/2711 0800 FG SCT005 OVC020
TEMPO 2711/2716 3000 RA SCT025 BKN035
BECMG 2717/2719 34010KT 9999 BKN045

Example: see airport list